createdAt,value
2019-02-20T00:01:29.844Z,98008.25
2019-02-20T00:03:57.898Z,98010.92
2019-02-20T00:06:25.889Z,98015.75
2019-02-20T00:08:53.859Z,98011.09
2019-02-20T00:11:21.954Z,98009.74
2019-02-20T00:13:50.228Z,98007.66
2019-02-20T00:16:18.510Z,98003.42
2019-02-20T00:18:46.542Z,98002.36
2019-02-20T00:21:14.423Z,98000.55
2019-02-20T00:23:42.606Z,98003.13
2019-02-20T00:26:10.448Z,98005.28
2019-02-20T00:28:38.699Z,98002.16
2019-02-20T00:31:06.490Z,98013.41
2019-02-20T00:33:34.452Z,98006.39
2019-02-20T00:36:02.315Z,98015.20
2019-02-20T00:38:30.489Z,98007.89
2019-02-20T00:40:58.556Z,98027.94
2019-02-20T00:43:26.665Z,98030.61
2019-02-20T00:46:12.347Z,98031.08
2019-02-20T00:48:50.981Z,98031.95
2019-02-20T00:51:35.347Z,98031.22
2019-02-20T00:54:04.636Z,98025.28
2019-02-20T00:56:32.488Z,98013.75
2019-02-20T00:59:00.467Z,98016.53
2019-02-20T01:01:28.439Z,98015.12
2019-02-20T01:03:56.643Z,98010.80
2019-02-20T01:06:24.839Z,98011.32
2019-02-20T01:08:52.893Z,98005.59
2019-02-20T01:11:21.108Z,98000.81
2019-02-20T01:13:49.178Z,98001.91
2019-02-20T01:16:19.230Z,98003.60
2019-02-20T01:18:47.246Z,98000.91
2019-02-20T01:21:15.158Z,98009.16
2019-02-20T01:23:43.128Z,98009.23
2019-02-20T01:26:11.281Z,98007.87
2019-02-20T01:28:39.292Z,98011.84
2019-02-20T01:31:07.355Z,98019.25
2019-02-20T01:33:35.293Z,98022.23
2019-02-20T01:36:04.727Z,98010.53
2019-02-20T01:38:33.156Z,98015.68
2019-02-20T01:41:01.121Z,98013.45
2019-02-20T01:43:29.137Z,98001.70
2019-02-20T01:45:56.986Z,98001.39
2019-02-20T01:48:25.062Z,97994.83
2019-02-20T01:50:53.029Z,97990.73
2019-02-20T01:53:21.799Z,97992.85
2019-02-20T01:55:49.891Z,97989.48
2019-02-20T01:58:18.893Z,97993.84
2019-02-20T02:00:46.872Z,98002.44
2019-02-20T02:03:14.950Z,98011.16
2019-02-20T02:05:42.835Z,98007.76
2019-02-20T02:08:11.093Z,98006.55
2019-02-20T02:10:39.167Z,98012.09
2019-02-20T02:13:07.188Z,98007.77
2019-02-20T02:15:35.131Z,98001.38
2019-02-20T02:18:03.183Z,98023.30
2019-02-20T02:20:31.448Z,98020.37
2019-02-20T02:22:59.423Z,98019.09
2019-02-20T02:25:27.963Z,98013.55
2019-02-20T02:27:55.920Z,98001.75
2019-02-20T02:30:24.037Z,98005.09
2019-02-20T02:32:51.968Z,97995.98
2019-02-20T02:35:20.063Z,98011.58
2019-02-20T02:37:48.159Z,98017.21
2019-02-20T02:40:16.268Z,98015.83
2019-02-20T02:42:44.264Z,98019.73
2019-02-20T02:45:12.122Z,98012.78
2019-02-20T02:47:39.886Z,98013.66
2019-02-20T02:50:07.784Z,98010.63
2019-02-20T02:52:35.920Z,98012.22
2019-02-20T02:55:04.231Z,98006.84
2019-02-20T02:57:33.258Z,98008.56
2019-02-20T03:00:01.115Z,97996.83
2019-02-20T03:02:30.673Z,98010.00
2019-02-20T03:04:58.562Z,98010.97
2019-02-20T03:07:26.615Z,98026.87
2019-02-20T03:09:54.583Z,98036.34
2019-02-20T03:12:22.657Z,98043.59
2019-02-20T03:14:50.532Z,98053.59
2019-02-20T03:17:18.491Z,98051.00
2019-02-20T03:19:46.271Z,98051.09
2019-02-20T03:22:14.293Z,98049.24
2019-02-20T03:24:42.326Z,98042.39
2019-02-20T03:27:10.497Z,98041.54
2019-02-20T03:29:39.477Z,98039.34
2019-02-20T03:32:07.622Z,98034.94
2019-02-20T03:34:36.704Z,98030.18
2019-02-20T03:37:05.666Z,98030.69
2019-02-20T03:39:33.850Z,98041.97
2019-02-20T03:42:01.833Z,98043.41
2019-02-20T03:44:29.797Z,98042.05
2019-02-20T03:46:57.836Z,98035.20
2019-02-20T03:49:27.000Z,98046.78
2019-02-20T03:51:55.046Z,98050.66
2019-02-20T03:54:23.104Z,98053.72
2019-02-20T03:56:51.361Z,98050.33
2019-02-20T03:59:19.538Z,98052.90
2019-02-20T04:01:47.660Z,98061.11
2019-02-20T04:04:15.683Z,98060.23
2019-02-20T04:06:45.254Z,98060.19
2019-02-20T04:09:13.258Z,98062.37
2019-02-20T04:11:41.129Z,98050.66
2019-02-20T04:14:08.916Z,98056.20
2019-02-20T04:16:36.947Z,98051.88
2019-02-20T04:19:04.784Z,98053.38
2019-02-20T04:21:32.736Z,98055.89
2019-02-20T04:24:02.829Z,98067.67
2019-02-20T04:26:31.858Z,98065.44
2019-02-20T04:28:59.921Z,98062.36
2019-02-20T04:31:28.123Z,98061.97
2019-02-20T04:33:56.212Z,98067.14
2019-02-20T04:36:24.516Z,98063.77
2019-02-20T04:38:52.472Z,98068.28
2019-02-20T04:41:20.367Z,98073.58
2019-02-20T04:43:48.398Z,98073.14
2019-02-20T04:46:17.425Z,98076.91
2019-02-20T04:48:45.296Z,98079.92
2019-02-20T04:51:13.298Z,98083.41
2019-02-20T04:53:41.366Z,98080.35
2019-02-20T04:56:09.589Z,98073.33
2019-02-20T04:58:37.506Z,98078.47
2019-02-20T05:01:05.444Z,98081.41
2019-02-20T05:03:33.238Z,98089.28
2019-02-20T05:06:01.271Z,98094.92
2019-02-20T05:08:29.176Z,98091.81
2019-02-20T05:10:57.149Z,98087.13
2019-02-20T05:13:25.094Z,98087.13
2019-02-20T05:15:54.169Z,98088.71
2019-02-20T05:18:22.251Z,98082.59
2019-02-20T05:20:50.222Z,98077.28
2019-02-20T05:23:18.188Z,98078.96
2019-02-20T05:25:46.165Z,98073.69
2019-02-20T05:28:14.225Z,98071.02
2019-02-20T05:30:42.161Z,98082.17
2019-02-20T05:33:10.988Z,98089.89
2019-02-20T05:35:38.983Z,98095.14
2019-02-20T05:38:06.994Z,98089.89
2019-02-20T05:40:34.761Z,98098.93
2019-02-20T05:43:02.620Z,98098.41
2019-02-20T05:45:30.325Z,98105.38
2019-02-20T05:47:58.263Z,98103.36
2019-02-20T05:50:26.207Z,98103.80
2019-02-20T05:52:54.216Z,98119.98
2019-02-20T05:55:22.064Z,98124.47
2019-02-20T05:57:50.183Z,98126.09
2019-02-20T06:00:18.247Z,98142.63
2019-02-20T06:02:46.280Z,98160.44
2019-02-20T06:05:14.095Z,98161.69
2019-02-20T06:07:42.363Z,98157.83
2019-02-20T06:10:10.161Z,98166.91
2019-02-20T06:12:38.170Z,98169.47
2019-02-20T06:15:06.081Z,98161.20
2019-02-20T06:17:34.218Z,98178.98
2019-02-20T06:20:02.053Z,98198.34
2019-02-20T06:22:30.132Z,98197.72
2019-02-20T06:24:58.118Z,98203.28
2019-02-20T06:27:26.076Z,98211.36
2019-02-20T06:29:53.881Z,98222.95
2019-02-20T06:32:23.998Z,98225.68
2019-02-20T06:34:51.630Z,98231.43
2019-02-20T06:37:19.684Z,98225.57
2019-02-20T06:39:47.845Z,98220.59
2019-02-20T06:42:15.629Z,98229.14
2019-02-20T06:44:43.711Z,98224.92
2019-02-20T06:47:11.780Z,98231.45
2019-02-20T06:49:39.577Z,98231.41
2019-02-20T06:52:07.515Z,98238.73
2019-02-20T06:54:36.371Z,98241.23
2019-02-20T06:57:04.337Z,98235.82
2019-02-20T06:59:32.377Z,98229.95
2019-02-20T07:02:00.409Z,98230.26
2019-02-20T07:04:28.242Z,98236.21
2019-02-20T07:07:34.145Z,98240.74
2019-02-20T07:10:47.742Z,98242.88
2019-02-20T07:14:00.606Z,98241.45
2019-02-20T07:17:14.998Z,98244.66
2019-02-20T07:19:55.416Z,98243.52
2019-02-20T07:23:04.350Z,98250.56
2019-02-20T07:26:31.802Z,98241.72
2019-02-20T07:29:23.530Z,98261.03
2019-02-20T07:31:51.397Z,98264.47
2019-02-20T07:34:19.527Z,98254.42
2019-02-20T07:36:47.612Z,98255.11
2019-02-20T07:39:15.448Z,98253.12
2019-02-20T07:41:43.512Z,98258.89
2019-02-20T07:44:11.404Z,98266.03
2019-02-20T07:46:39.645Z,98269.58
2019-02-20T07:49:07.582Z,98269.30
2019-02-20T07:51:35.610Z,98269.05
2019-02-20T07:54:03.525Z,98278.47
2019-02-20T07:56:31.419Z,98275.11
2019-02-20T07:58:59.214Z,98273.56
2019-02-20T08:01:27.253Z,98272.77
2019-02-20T08:03:55.080Z,98270.53
2019-02-20T08:06:23.164Z,98273.31
2019-02-20T08:08:51.360Z,98284.16
2019-02-20T08:11:19.550Z,98285.55
2019-02-20T08:13:47.429Z,98295.31
2019-02-20T08:16:15.388Z,98279.70
2019-02-20T08:18:43.316Z,98294.05
2019-02-20T08:21:11.334Z,98292.11
2019-02-20T08:23:39.350Z,98291.11
2019-02-20T08:26:07.426Z,98301.31
2019-02-20T08:28:35.368Z,98294.05
2019-02-20T08:31:03.289Z,98290.02
2019-02-20T08:33:31.210Z,98302.48
2019-02-20T08:35:59.446Z,98304.85
2019-02-20T08:38:27.207Z,98308.70
2019-02-20T08:40:55.405Z,98309.31
2019-02-20T08:43:23.284Z,98303.14
2019-02-20T08:45:51.326Z,98297.39
2019-02-20T08:48:19.121Z,98307.81
2019-02-20T08:50:47.267Z,98309.19
2019-02-20T08:53:15.364Z,98318.94
2019-02-20T08:55:43.416Z,98322.03
2019-02-20T08:58:11.304Z,98324.15
2019-02-20T09:00:39.236Z,98327.98
2019-02-20T09:03:07.028Z,98325.28
2019-02-20T09:05:34.944Z,98341.86
2019-02-20T09:08:02.979Z,98334.19
2019-02-20T09:10:30.524Z,98349.09
2019-02-20T09:12:59.665Z,98345.92
2019-02-20T09:15:27.581Z,98345.10
2019-02-20T09:17:55.510Z,98344.59
2019-02-20T09:20:23.623Z,98350.64
2019-02-20T09:22:51.653Z,98348.11
2019-02-20T09:25:20.264Z,98344.03
2019-02-20T09:27:48.031Z,98339.89
2019-02-20T09:30:16.045Z,98338.66
2019-02-20T09:32:44.140Z,98336.96
2019-02-20T09:35:12.434Z,98343.12
2019-02-20T09:37:40.354Z,98342.85
2019-02-20T09:40:11.258Z,98348.67
2019-02-20T09:42:40.153Z,98353.63
2019-02-20T09:45:08.167Z,98349.13
2019-02-20T09:47:36.273Z,98350.08
2019-02-20T09:50:04.677Z,98346.19
2019-02-20T09:52:32.542Z,98344.97
2019-02-20T09:55:01.362Z,98353.08
2019-02-20T09:57:30.368Z,98350.57
2019-02-20T09:59:58.135Z,98351.80
2019-02-20T10:02:26.222Z,98354.17
2019-02-20T10:04:54.236Z,98342.01
2019-02-20T10:07:22.400Z,98343.75
2019-02-20T10:09:50.223Z,98346.96
2019-02-20T10:12:18.139Z,98343.12
2019-02-20T10:14:46.215Z,98338.77
2019-02-20T10:17:13.956Z,98347.66
2019-02-20T10:19:42.006Z,98332.92
2019-02-20T10:22:10.092Z,98336.03
2019-02-20T10:24:38.338Z,98338.47
2019-02-20T10:27:06.335Z,98336.36
2019-02-20T10:29:34.478Z,98331.37
2019-02-20T10:32:02.501Z,98328.78
2019-02-20T10:34:30.604Z,98327.14
2019-02-20T10:36:58.552Z,98321.63
2019-02-20T10:39:26.736Z,98317.95
2019-02-20T10:41:54.665Z,98321.55
2019-02-20T10:44:22.697Z,98317.72
2019-02-20T10:46:50.710Z,98315.94
2019-02-20T10:49:18.767Z,98317.25
2019-02-20T10:51:46.638Z,98325.36
2019-02-20T10:54:14.589Z,98318.88
2019-02-20T10:56:42.495Z,98311.41
2019-02-20T10:59:10.672Z,98310.70
2019-02-20T11:01:38.522Z,98303.61
2019-02-20T11:04:06.389Z,98308.52
2019-02-20T11:06:34.471Z,98304.75
2019-02-20T11:09:04.180Z,98305.47
2019-02-20T11:11:33.980Z,98306.67
2019-02-20T11:14:02.156Z,98303.52
2019-02-20T11:16:30.139Z,98301.34
2019-02-20T11:18:58.264Z,98296.66
2019-02-20T11:21:26.095Z,98297.80
2019-02-20T11:23:54.023Z,98292.34
2019-02-20T11:26:22.318Z,98292.00
2019-02-20T11:28:50.467Z,98292.22
2019-02-20T11:31:18.266Z,98289.02
2019-02-20T11:33:46.291Z,98287.94
2019-02-20T11:36:14.338Z,98291.13
2019-02-20T11:38:42.269Z,98286.02
2019-02-20T11:41:10.234Z,98285.06
2019-02-20T11:43:39.286Z,98279.16
2019-02-20T11:46:07.307Z,98271.98
2019-02-20T11:48:35.273Z,98270.92
2019-02-20T11:51:03.202Z,98269.09
2019-02-20T11:53:37.037Z,98257.25
2019-02-20T11:56:01.287Z,98262.03
2019-02-20T11:58:29.355Z,98249.70
2019-02-20T12:00:57.460Z,98254.67
2019-02-20T12:03:25.453Z,98251.89
2019-02-20T12:05:53.396Z,98252.62
2019-02-20T12:08:21.381Z,98250.23
2019-02-20T12:10:49.306Z,98253.84
2019-02-20T12:13:17.228Z,98248.91
2019-02-20T12:15:45.267Z,98250.36
2019-02-20T12:18:17.363Z,98235.63
2019-02-20T12:20:43.713Z,98238.85
2019-02-20T12:23:11.685Z,98238.11
2019-02-20T12:25:39.786Z,98242.32
2019-02-20T12:28:07.834Z,98240.14
2019-02-20T12:30:38.074Z,98245.80
2019-02-20T12:33:06.208Z,98236.88
2019-02-20T12:35:34.230Z,98239.07
2019-02-20T12:38:02.600Z,98241.80
2019-02-20T12:40:30.363Z,98238.78
2019-02-20T12:42:59.438Z,98233.98
2019-02-20T12:45:27.443Z,98231.95
2019-02-20T12:47:55.299Z,98230.65
2019-02-20T12:50:24.742Z,98221.14
2019-02-20T12:52:52.877Z,98224.55
2019-02-20T12:55:20.706Z,98224.94
2019-02-20T12:57:48.511Z,98227.13
2019-02-20T13:00:17.829Z,98224.99
2019-02-20T13:02:45.853Z,98225.11
2019-02-20T13:05:13.820Z,98223.92
2019-02-20T13:07:41.701Z,98223.03
2019-02-20T13:10:10.221Z,98223.40
2019-02-20T13:12:38.138Z,98214.17
2019-02-20T13:15:06.254Z,98211.48
2019-02-20T13:17:34.254Z,98212.05
2019-02-20T13:20:02.250Z,98215.63
2019-02-20T13:22:33.502Z,98217.36
2019-02-20T13:25:01.571Z,98219.27
2019-02-20T13:27:32.936Z,98211.49
2019-02-20T13:30:01.146Z,98215.37
2019-02-20T13:32:29.202Z,98216.73
2019-02-20T13:34:56.940Z,98209.48
2019-02-20T13:37:25.221Z,98217.86
2019-02-20T13:39:53.303Z,98212.83
2019-02-20T13:42:22.066Z,98202.52
2019-02-20T13:44:49.997Z,98211.41
2019-02-20T13:47:19.340Z,98202.91
2019-02-20T13:49:47.314Z,98204.95
2019-02-20T13:52:18.675Z,98207.66
2019-02-20T13:54:46.495Z,98210.67
2019-02-20T13:57:15.121Z,98202.23
2019-02-20T13:59:43.049Z,98217.94
2019-02-20T14:02:10.963Z,98209.02
2019-02-20T14:04:38.940Z,98209.46
2019-02-20T14:07:06.816Z,98209.61
2019-02-20T14:09:35.063Z,98214.11
2019-02-20T14:12:03.439Z,98214.39
2019-02-20T14:14:31.336Z,98212.74
2019-02-20T14:16:59.660Z,98213.91
2019-02-20T14:19:27.907Z,98213.34
2019-02-20T14:21:56.074Z,98216.94
2019-02-20T14:24:24.419Z,98224.45
2019-02-20T14:26:52.594Z,98216.88
2019-02-20T14:29:21.468Z,98215.83
2019-02-20T14:31:49.870Z,98216.75
2019-02-20T14:34:18.114Z,98215.55
2019-02-20T14:36:46.325Z,98216.84
2019-02-20T14:39:14.234Z,98213.58
2019-02-20T14:41:42.545Z,98212.94
2019-02-20T14:44:10.790Z,98216.34
2019-02-20T14:46:38.749Z,98217.76
2019-02-20T14:49:07.351Z,98214.27
2019-02-20T14:51:35.301Z,98222.65
2019-02-20T14:54:03.516Z,98217.94
2019-02-20T14:56:31.767Z,98212.88
2019-02-20T14:58:59.561Z,98220.75
2019-02-20T15:01:27.606Z,98221.84
2019-02-20T15:03:55.553Z,98223.84
2019-02-20T15:06:23.877Z,98213.55
2019-02-20T15:08:51.845Z,98219.70
2019-02-20T15:11:20.000Z,98220.17
2019-02-20T15:13:47.878Z,98218.81
2019-02-20T15:16:15.825Z,98219.56
2019-02-20T15:18:43.854Z,98223.96
2019-02-20T15:21:11.859Z,98222.83
2019-02-20T15:23:39.695Z,98229.12
2019-02-20T15:26:07.571Z,98231.71
2019-02-20T15:28:35.765Z,98228.41
2019-02-20T15:31:03.869Z,98231.80
2019-02-20T15:33:31.779Z,98233.22
2019-02-20T15:35:59.734Z,98229.97
2019-02-20T15:38:27.784Z,98223.61
2019-02-20T15:40:55.780Z,98227.28
2019-02-20T15:43:23.886Z,98231.34
2019-02-20T15:45:52.090Z,98219.17
2019-02-20T15:48:23.398Z,98234.06
2019-02-20T15:50:49.794Z,98239.20
2019-02-20T15:53:17.913Z,98241.66
2019-02-20T15:55:45.831Z,98234.91
2019-02-20T15:58:13.825Z,98231.59
2019-02-20T16:00:41.758Z,98236.44
2019-02-20T16:03:09.691Z,98243.06
2019-02-20T16:05:38.667Z,98241.98
2019-02-20T16:08:07.355Z,98239.38
2019-02-20T16:10:35.103Z,98235.64
2019-02-20T16:13:02.944Z,98238.20
2019-02-20T16:15:30.854Z,98239.13
2019-02-20T16:17:58.912Z,98236.91
2019-02-20T16:20:27.029Z,98239.45
2019-02-20T16:22:55.054Z,98253.05
2019-02-20T16:25:25.006Z,98244.86
2019-02-20T16:27:52.863Z,98251.30
2019-02-20T16:30:20.927Z,98249.43
2019-02-20T16:32:48.569Z,98243.80
2019-02-20T16:35:16.442Z,98252.39
2019-02-20T16:37:44.323Z,98251.88
2019-02-20T16:40:12.332Z,98254.80
2019-02-20T16:42:40.237Z,98264.50
2019-02-20T16:45:19.147Z,98276.28
2019-02-20T16:47:47.148Z,98269.30
2019-02-20T16:50:15.348Z,98269.08
2019-02-20T16:52:43.379Z,98266.23
2019-02-20T16:55:11.508Z,98280.53
2019-02-20T16:57:39.434Z,98279.43
2019-02-20T17:00:08.639Z,98279.53
2019-02-20T17:02:36.608Z,98281.85
2019-02-20T17:05:04.529Z,98280.69
2019-02-20T17:07:32.447Z,98285.19
2019-02-20T17:10:00.352Z,98285.67
2019-02-20T17:12:28.288Z,98285.42
2019-02-20T17:14:56.724Z,98298.11
2019-02-20T17:17:24.742Z,98300.20
2019-02-20T17:19:52.828Z,98307.24
2019-02-20T17:22:20.659Z,98312.20
2019-02-20T17:24:48.818Z,98316.59
2019-02-20T17:27:16.699Z,98311.08
2019-02-20T17:29:44.935Z,98318.91
2019-02-20T17:32:12.942Z,98316.67
2019-02-20T17:34:40.627Z,98320.00
2019-02-20T17:37:08.687Z,98322.31
2019-02-20T17:39:36.634Z,98321.55
2019-02-20T17:42:04.545Z,98322.69
2019-02-20T17:44:32.516Z,98328.38
2019-02-20T17:47:00.535Z,98327.47
2019-02-20T17:49:28.832Z,98329.16
2019-02-20T17:51:56.673Z,98329.77
2019-02-20T17:54:24.807Z,98333.84
2019-02-20T17:56:53.051Z,98327.84
2019-02-20T17:59:21.020Z,98331.93
2019-02-20T18:01:49.056Z,98335.76
2019-02-20T18:04:16.994Z,98339.01
2019-02-20T18:06:46.248Z,98342.88
2019-02-20T18:09:14.335Z,98343.55
2019-02-20T18:11:42.236Z,98352.13
2019-02-20T18:14:10.355Z,98355.28
2019-02-20T18:16:38.517Z,98358.30
2019-02-20T18:19:06.561Z,98358.95
2019-02-20T18:21:34.532Z,98368.71
2019-02-20T18:24:02.520Z,98358.66
2019-02-20T18:26:31.567Z,98358.02
2019-02-20T18:28:59.776Z,98359.73
2019-02-20T18:31:27.732Z,98364.91
2019-02-20T18:33:57.646Z,98366.23
2019-02-20T18:36:26.755Z,98369.22
2019-02-20T18:38:54.853Z,98376.63
2019-02-20T18:41:23.142Z,98370.19
2019-02-20T18:43:51.067Z,98374.72
2019-02-20T18:46:19.071Z,98376.09
2019-02-20T18:48:47.137Z,98377.95
2019-02-20T18:51:15.073Z,98384.66
2019-02-20T18:53:44.961Z,98368.84
2019-02-20T18:56:12.893Z,98387.77
2019-02-20T18:58:41.067Z,98390.20
2019-02-20T19:01:09.376Z,98399.07
2019-02-20T19:03:37.597Z,98393.17
2019-02-20T19:06:05.602Z,98400.90
2019-02-20T19:09:00.415Z,98403.77
2019-02-20T19:11:35.069Z,98409.05
2019-02-20T19:14:41.628Z,98412.70
2019-02-20T19:17:51.075Z,98416.71
2019-02-20T19:21:15.962Z,98422.12
2019-02-20T19:24:34.847Z,98422.16
2019-02-20T19:27:56.500Z,98431.12
2019-02-20T19:31:00.869Z,98432.34
2019-02-20T19:34:09.425Z,98434.96
2019-02-20T19:36:55.136Z,98435.99
2019-02-20T19:39:56.554Z,98435.28
2019-02-20T19:43:09.191Z,98429.81
2019-02-20T19:45:56.649Z,98448.78
2019-02-20T19:49:03.142Z,98458.08
2019-02-20T19:52:13.112Z,98457.28
2019-02-20T19:55:08.642Z,98456.75
2019-02-20T19:58:17.617Z,98467.50
2019-02-20T20:01:06.865Z,98464.86
2019-02-20T20:04:05.577Z,98465.39
2019-02-20T20:07:02.574Z,98468.00
2019-02-20T20:10:06.757Z,98469.90
2019-02-20T20:13:25.461Z,98482.62
2019-02-20T20:16:42.753Z,98478.74
2019-02-20T20:19:29.682Z,98483.10
2019-02-20T20:22:45.069Z,98497.34
2019-02-20T20:25:48.094Z,98490.80
2019-02-20T20:28:40.364Z,98493.32
2019-02-20T20:31:46.075Z,98484.63
2019-02-20T20:34:51.214Z,98501.55
2019-02-20T20:37:46.822Z,98499.98
2019-02-20T20:40:31.996Z,98498.75
2019-02-20T20:43:53.553Z,98502.89
2019-02-20T20:47:17.366Z,98498.78
2019-02-20T20:50:14.161Z,98501.01
2019-02-20T20:53:38.872Z,98501.53
2019-02-20T20:57:00.681Z,98497.25
2019-02-20T20:59:56.974Z,98502.42
2019-02-20T21:02:48.591Z,98505.44
2019-02-20T21:06:01.119Z,98506.17
2019-02-20T21:08:36.666Z,98510.70
2019-02-20T21:11:48.862Z,98509.00
2019-02-20T21:14:48.289Z,98517.73
2019-02-20T21:18:04.166Z,98514.34
2019-02-20T21:20:57.777Z,98513.30
2019-02-20T21:24:34.825Z,98517.81
2019-02-20T21:27:42.966Z,98517.28
2019-02-20T21:30:35.482Z,98517.28
2019-02-20T21:33:54.066Z,98522.20
2019-02-20T21:36:32.981Z,98530.67
2019-02-20T21:39:51.546Z,98521.61
2019-02-20T21:42:51.328Z,98525.79
2019-02-20T21:45:50.999Z,98525.08
2019-02-20T21:48:59.061Z,98523.80
2019-02-20T21:52:20.623Z,98535.91
2019-02-20T21:54:56.518Z,98538.13
2019-02-20T21:57:53.117Z,98539.03
2019-02-20T22:00:46.849Z,98536.88
2019-02-20T22:03:53.664Z,98544.81
2019-02-20T22:06:40.786Z,98535.22
2019-02-20T22:09:34.289Z,98550.26
2019-02-20T22:12:38.442Z,98552.10
2019-02-20T22:15:37.762Z,98546.34
2019-02-20T22:18:30.828Z,98553.91
2019-02-20T22:21:52.566Z,98555.22
2019-02-20T22:24:45.835Z,98553.00
2019-02-20T22:27:39.499Z,98549.65
2019-02-20T22:30:23.029Z,98548.64
2019-02-20T22:33:32.682Z,98546.12
2019-02-20T22:36:51.747Z,98547.39
2019-02-20T22:39:56.091Z,98549.23
2019-02-20T22:43:11.465Z,98548.92
2019-02-20T22:45:56.211Z,98549.48
2019-02-20T22:48:47.734Z,98545.27
2019-02-20T22:51:22.258Z,98548.80
2019-02-20T22:54:14.209Z,98554.92
2019-02-20T22:57:36.518Z,98555.48
2019-02-20T23:00:52.656Z,98558.22
2019-02-20T23:04:04.925Z,98561.88
2019-02-20T23:06:46.379Z,98560.01
2019-02-20T23:10:13.281Z,98563.19
2019-02-20T23:13:16.647Z,98561.56
2019-02-20T23:15:44.694Z,98561.09
2019-02-20T23:18:12.584Z,98558.72
2019-02-20T23:20:40.534Z,98553.56
2019-02-20T23:23:08.971Z,98559.74
2019-02-20T23:25:37.101Z,98566.02
2019-02-20T23:28:06.076Z,98561.66
2019-02-20T23:30:34.068Z,98563.70
2019-02-20T23:33:02.096Z,98567.77
2019-02-20T23:35:30.192Z,98567.86
2019-02-20T23:37:58.266Z,98568.91
2019-02-20T23:40:27.733Z,98571.59
2019-02-20T23:42:55.804Z,98556.97
2019-02-20T23:45:23.664Z,98574.48
2019-02-20T23:47:51.507Z,98573.70
2019-02-20T23:50:19.637Z,98583.00
2019-02-20T23:52:47.757Z,98578.77
2019-02-20T23:55:15.834Z,98586.91
2019-02-20T23:57:43.786Z,98594.21
